sensor_id;sensor_type;location;lat;lon;timestamp;temperature;humidity
43772;HTU21D;59066;54.782;32.024;2022-10-16T00:01:35;8.06;59.86
43772;HTU21D;59066;54.782;32.024;2022-10-16T00:04:03;8.06;59.90
43772;HTU21D;59066;54.782;32.024;2022-10-16T00:06:31;8.07;59.62
43772;HTU21D;59066;54.782;32.024;2022-10-16T00:08:59;8.08;59.63
43772;HTU21D;59066;54.782;32.024;2022-10-16T00:11:30;8.08;59.69
43772;HTU21D;59066;54.782;32.024;2022-10-16T00:14:00;8.12;59.66
43772;HTU21D;59066;54.782;32.024;2022-10-16T00:16:28;8.13;59.40
43772;HTU21D;59066;54.782;32.024;2022-10-16T00:18:56;8.09;59.16
43772;HTU21D;59066;54.782;32.024;2022-10-16T00:21:26;8.15;59.24
43772;HTU21D;59066;54.782;32.024;2022-10-16T00:24:13;8.14;59.20
43772;HTU21D;59066;54.782;32.024;2022-10-16T00:26:40;8.16;59.25
43772;HTU21D;59066;54.782;32.024;2022-10-16T00:29:08;8.17;59.03
43772;HTU21D;59066;54.782;32.024;2022-10-16T00:31:36;8.18;58.99
43772;HTU21D;59066;54.782;32.024;2022-10-16T00:34:03;8.22;58.84
43772;HTU21D;59066;54.782;32.024;2022-10-16T00:36:31;8.27;58.62
43772;HTU21D;59066;54.782;32.024;2022-10-16T00:38:59;8.24;58.56
43772;HTU21D;59066;54.782;32.024;2022-10-16T00:41:28;8.26;58.58
43772;HTU21D;59066;54.782;32.024;2022-10-16T00:43:58;8.27;58.53
43772;HTU21D;59066;54.782;32.024;2022-10-16T00:46:40;8.29;58.52
43772;HTU21D;59066;54.782;32.024;2022-10-16T00:49:15;8.30;58.53
43772;HTU21D;59066;54.782;32.024;2022-10-16T00:51:53;8.30;58.31
43772;HTU21D;59066;54.782;32.024;2022-10-16T00:54:23;8.29;58.32
43772;HTU21D;59066;54.782;32.024;2022-10-16T00:56:53;8.28;58.22
43772;HTU21D;59066;54.782;32.024;2022-10-16T00:59:25;8.30;58.24
43772;HTU21D;59066;54.782;32.024;2022-10-16T01:01:54;8.31;58.27
43772;HTU21D;59066;54.782;32.024;2022-10-16T01:04:23;8.32;58.20
43772;HTU21D;59066;54.782;32.024;2022-10-16T01:07:04;8.33;58.25
43772;HTU21D;59066;54.782;32.024;2022-10-16T01:09:47;8.33;58.16
43772;HTU21D;59066;54.782;32.024;2022-10-16T01:23:30;8.12;59.12
43772;HTU21D;59066;54.782;32.024;2022-10-16T01:31:56;7.87;59.80
43772;HTU21D;59066;54.782;32.024;2022-10-16T01:34:35;7.82;60.06
43772;HTU21D;59066;54.782;32.024;2022-10-16T01:37:11;7.75;60.12
43772;HTU21D;59066;54.782;32.024;2022-10-16T01:39:41;7.69;60.18
43772;HTU21D;59066;54.782;32.024;2022-10-16T01:42:16;7.63;60.37
43772;HTU21D;59066;54.782;32.024;2022-10-16T01:44:47;7.57;60.62
43772;HTU21D;59066;54.782;32.024;2022-10-16T01:47:15;7.48;61.13
43772;HTU21D;59066;54.782;32.024;2022-10-16T01:49:44;7.43;61.21
43772;HTU21D;59066;54.782;32.024;2022-10-16T01:52:16;7.35;61.59
43772;HTU21D;59066;54.782;32.024;2022-10-16T01:54:47;7.28;61.79
43772;HTU21D;59066;54.782;32.024;2022-10-16T01:57:16;7.23;61.80
43772;HTU21D;59066;54.782;32.024;2022-10-16T01:59:47;7.18;62.10
43772;HTU21D;59066;54.782;32.024;2022-10-16T02:02:17;7.12;62.11
43772;HTU21D;59066;54.782;32.024;2022-10-16T02:04:49;7.10;62.15
43772;HTU21D;59066;54.782;32.024;2022-10-16T02:07:19;7.04;62.43
43772;HTU21D;59066;54.782;32.024;2022-10-16T02:09:46;6.98;62.68
43772;HTU21D;59066;54.782;32.024;2022-10-16T02:12:21;6.91;62.72
43772;HTU21D;59066;54.782;32.024;2022-10-16T02:14:51;6.85;63.04
43772;HTU21D;59066;54.782;32.024;2022-10-16T02:17:19;6.80;63.24
43772;HTU21D;59066;54.782;32.024;2022-10-16T02:19:48;6.75;63.22
43772;HTU21D;59066;54.782;32.024;2022-10-16T02:22:29;6.70;63.69
43772;HTU21D;59066;54.782;32.024;2022-10-16T02:25:10;6.64;63.95
43772;HTU21D;59066;54.782;32.024;2022-10-16T02:30:20;6.55;64.10
43772;HTU21D;59066;54.782;32.024;2022-10-16T02:32:49;6.50;64.22
43772;HTU21D;59066;54.782;32.024;2022-10-16T02:35:18;6.48;64.30
43772;HTU21D;59066;54.782;32.024;2022-10-16T02:37:47;6.41;64.69
43772;HTU21D;59066;54.782;32.024;2022-10-16T02:40:17;6.38;64.66
43772;HTU21D;59066;54.782;32.024;2022-10-16T02:42:50;6.33;64.93
43772;HTU21D;59066;54.782;32.024;2022-10-16T02:45:19;6.33;64.76
43772;HTU21D;59066;54.782;32.024;2022-10-16T02:47:47;6.22;65.19
43772;HTU21D;59066;54.782;32.024;2022-10-16T02:50:15;6.14;65.70
43772;HTU21D;59066;54.782;32.024;2022-10-16T02:52:42;6.11;65.65
43772;HTU21D;59066;54.782;32.024;2022-10-16T02:55:10;6.07;65.96
43772;HTU21D;59066;54.782;32.024;2022-10-16T02:57:38;6.02;65.95
43772;HTU21D;59066;54.782;32.024;2022-10-16T03:00:09;5.97;66.33
43772;HTU21D;59066;54.782;32.024;2022-10-16T03:02:36;5.92;66.46
43772;HTU21D;59066;54.782;32.024;2022-10-16T03:05:04;5.86;66.74
43772;HTU21D;59066;54.782;32.024;2022-10-16T03:07:38;5.82;66.98
43772;HTU21D;59066;54.782;32.024;2022-10-16T03:10:06;5.76;67.42
43772;HTU21D;59066;54.782;32.024;2022-10-16T03:12:33;5.75;67.31
43772;HTU21D;59066;54.782;32.024;2022-10-16T03:15:01;5.70;67.49
43772;HTU21D;59066;54.782;32.024;2022-10-16T03:17:28;5.64;67.62
43772;HTU21D;59066;54.782;32.024;2022-10-16T03:19:55;5.65;67.58
43772;HTU21D;59066;54.782;32.024;2022-10-16T03:22:23;5.63;67.63
43772;HTU21D;59066;54.782;32.024;2022-10-16T03:24:50;5.55;67.94
43772;HTU21D;59066;54.782;32.024;2022-10-16T03:27:17;5.51;68.20
43772;HTU21D;59066;54.782;32.024;2022-10-16T03:29:45;5.47;68.58
43772;HTU21D;59066;54.782;32.024;2022-10-16T03:32:12;5.43;68.74
43772;HTU21D;59066;54.782;32.024;2022-10-16T03:34:39;5.38;69.11
43772;HTU21D;59066;54.782;32.024;2022-10-16T03:37:07;5.34;69.36
43772;HTU21D;59066;54.782;32.024;2022-10-16T03:39:34;5.32;69.33
43772;HTU21D;59066;54.782;32.024;2022-10-16T03:42:02;5.31;69.49
43772;HTU21D;59066;54.782;32.024;2022-10-16T03:44:29;5.31;69.46
43772;HTU21D;59066;54.782;32.024;2022-10-16T03:46:57;5.28;69.48
43772;HTU21D;59066;54.782;32.024;2022-10-16T03:49:24;5.28;69.43
43772;HTU21D;59066;54.782;32.024;2022-10-16T03:51:51;5.27;69.50
43772;HTU21D;59066;54.782;32.024;2022-10-16T03:54:18;5.22;69.69
43772;HTU21D;59066;54.782;32.024;2022-10-16T03:56:46;5.22;69.67
43772;HTU21D;59066;54.782;32.024;2022-10-16T03:59:13;5.20;69.78
43772;HTU21D;59066;54.782;32.024;2022-10-16T04:01:41;5.19;69.74
43772;HTU21D;59066;54.782;32.024;2022-10-16T04:04:08;5.13;69.92
43772;HTU21D;59066;54.782;32.024;2022-10-16T04:06:35;5.10;70.12
43772;HTU21D;59066;54.782;32.024;2022-10-16T04:09:03;5.07;70.30
43772;HTU21D;59066;54.782;32.024;2022-10-16T04:11:30;5.02;70.49
43772;HTU21D;59066;54.782;32.024;2022-10-16T04:13:57;4.96;70.77
43772;HTU21D;59066;54.782;32.024;2022-10-16T04:16:25;4.97;70.79
43772;HTU21D;59066;54.782;32.024;2022-10-16T04:18:52;4.93;70.78
43772;HTU21D;59066;54.782;32.024;2022-10-16T04:21:19;4.97;70.71
43772;HTU21D;59066;54.782;32.024;2022-10-16T04:23:47;4.98;70.71
43772;HTU21D;59066;54.782;32.024;2022-10-16T04:26:14;4.96;70.68
43772;HTU21D;59066;54.782;32.024;2022-10-16T04:28:41;4.96;70.77
43772;HTU21D;59066;54.782;32.024;2022-10-16T04:31:09;4.94;70.76
43772;HTU21D;59066;54.782;32.024;2022-10-16T04:33:37;4.95;70.76
43772;HTU21D;59066;54.782;32.024;2022-10-16T04:36:04;4.90;70.95
43772;HTU21D;59066;54.782;32.024;2022-10-16T04:38:32;4.90;71.03
43772;HTU21D;59066;54.782;32.024;2022-10-16T04:40:59;4.89;71.06
43772;HTU21D;59066;54.782;32.024;2022-10-16T04:43:26;4.91;71.12
43772;HTU21D;59066;54.782;32.024;2022-10-16T04:46:14;4.89;71.05
43772;HTU21D;59066;54.782;32.024;2022-10-16T04:48:41;4.90;71.10
43772;HTU21D;59066;54.782;32.024;2022-10-16T04:51:09;4.91;71.09
43772;HTU21D;59066;54.782;32.024;2022-10-16T04:53:37;4.89;71.12
43772;HTU21D;59066;54.782;32.024;2022-10-16T04:56:05;4.92;71.07
43772;HTU21D;59066;54.782;32.024;2022-10-16T04:58:32;4.97;71.03
43772;HTU21D;59066;54.782;32.024;2022-10-16T05:01:00;4.98;70.97
43772;HTU21D;59066;54.782;32.024;2022-10-16T05:03:27;5.05;70.72
43772;HTU21D;59066;54.782;32.024;2022-10-16T05:06:14;5.01;70.78
43772;HTU21D;59066;54.782;32.024;2022-10-16T05:08:42;5.07;70.71
43772;HTU21D;59066;54.782;32.024;2022-10-16T05:11:09;5.12;70.53
43772;HTU21D;59066;54.782;32.024;2022-10-16T05:13:36;5.16;70.33
43772;HTU21D;59066;54.782;32.024;2022-10-16T05:16:04;5.18;70.17
43772;HTU21D;59066;54.782;32.024;2022-10-16T05:18:31;5.19;70.07
43772;HTU21D;59066;54.782;32.024;2022-10-16T05:20:59;5.24;69.94
43772;HTU21D;59066;54.782;32.024;2022-10-16T05:23:26;5.30;69.80
43772;HTU21D;59066;54.782;32.024;2022-10-16T05:25:57;5.36;69.78
43772;HTU21D;59066;54.782;32.024;2022-10-16T05:28:26;5.41;69.58
43772;HTU21D;59066;54.782;32.024;2022-10-16T05:30:54;5.47;69.18
43772;HTU21D;59066;54.782;32.024;2022-10-16T05:33:23;5.52;69.32
43772;HTU21D;59066;54.782;32.024;2022-10-16T05:35:52;5.62;68.93
43772;HTU21D;59066;54.782;32.024;2022-10-16T05:38:19;5.70;68.78
43772;HTU21D;59066;54.782;32.024;2022-10-16T05:40:55;5.81;68.56
43772;HTU21D;59066;54.782;32.024;2022-10-16T05:43:23;5.87;68.05
43772;HTU21D;59066;54.782;32.024;2022-10-16T05:46:17;5.98;67.92
43772;HTU21D;59066;54.782;32.024;2022-10-16T05:48:45;6.12;67.49
43772;HTU21D;59066;54.782;32.024;2022-10-16T05:51:13;6.20;67.17
43772;HTU21D;59066;54.782;32.024;2022-10-16T05:53:41;6.33;66.61
43772;HTU21D;59066;54.782;32.024;2022-10-16T05:56:10;6.40;66.38
43772;HTU21D;59066;54.782;32.024;2022-10-16T05:58:39;6.51;66.02
43772;HTU21D;59066;54.782;32.024;2022-10-16T06:01:13;6.60;65.72
43772;HTU21D;59066;54.782;32.024;2022-10-16T06:03:41;6.75;65.10
43772;HTU21D;59066;54.782;32.024;2022-10-16T06:06:14;6.82;64.82
43772;HTU21D;59066;54.782;32.024;2022-10-16T06:08:43;6.97;64.48
43772;HTU21D;59066;54.782;32.024;2022-10-16T06:11:14;7.01;64.05
43772;HTU21D;59066;54.782;32.024;2022-10-16T06:13:42;7.05;63.69
43772;HTU21D;59066;54.782;32.024;2022-10-16T06:16:10;7.14;63.67
43772;HTU21D;59066;54.782;32.024;2022-10-16T06:18:38;7.26;63.75
43772;HTU21D;59066;54.782;32.024;2022-10-16T06:21:11;7.42;63.36
43772;HTU21D;59066;54.782;32.024;2022-10-16T06:23:39;7.48;62.62
43772;HTU21D;59066;54.782;32.024;2022-10-16T06:26:14;7.56;62.39
43772;HTU21D;59066;54.782;32.024;2022-10-16T06:28:42;7.54;62.10
43772;HTU21D;59066;54.782;32.024;2022-10-16T06:31:11;7.54;61.96
43772;HTU21D;59066;54.782;32.024;2022-10-16T06:33:39;7.59;62.10
43772;HTU21D;59066;54.782;32.024;2022-10-16T06:36:12;7.70;62.21
43772;HTU21D;59066;54.782;32.024;2022-10-16T06:38:40;7.85;61.38
43772;HTU21D;59066;54.782;32.024;2022-10-16T06:41:14;7.93;61.18
43772;HTU21D;59066;54.782;32.024;2022-10-16T06:43:41;7.90;60.67
43772;HTU21D;59066;54.782;32.024;2022-10-16T06:46:10;7.87;60.69
43772;HTU21D;59066;54.782;32.024;2022-10-16T06:48:38;7.94;61.22
43772;HTU21D;59066;54.782;32.024;2022-10-16T06:51:09;8.02;61.63
43772;HTU21D;59066;54.782;32.024;2022-10-16T06:53:39;8.00;61.67
43772;HTU21D;59066;54.782;32.024;2022-10-16T06:56:28;8.05;61.44
43772;HTU21D;59066;54.782;32.024;2022-10-16T06:58:58;8.07;61.54
43772;HTU21D;59066;54.782;32.024;2022-10-16T07:01:27;8.13;61.38
43772;HTU21D;59066;54.782;32.024;2022-10-16T07:03:54;8.20;61.35
43772;HTU21D;59066;54.782;32.024;2022-10-16T07:06:23;8.27;60.68
43772;HTU21D;59066;54.782;32.024;2022-10-16T07:08:51;8.30;60.91
43772;HTU21D;59066;54.782;32.024;2022-10-16T07:11:21;8.38;60.63
43772;HTU21D;59066;54.782;32.024;2022-10-16T07:13:49;8.47;60.36
43772;HTU21D;59066;54.782;32.024;2022-10-16T07:16:22;8.58;60.19
43772;HTU21D;59066;54.782;32.024;2022-10-16T07:18:50;8.64;59.63
43772;HTU21D;59066;54.782;32.024;2022-10-16T07:21:20;8.81;59.76
43772;HTU21D;59066;54.782;32.024;2022-10-16T07:23:52;8.90;59.09
43772;HTU21D;59066;54.782;32.024;2022-10-16T07:26:20;8.94;58.25
43772;HTU21D;59066;54.782;32.024;2022-10-16T07:28:48;9.03;58.40
43772;HTU21D;59066;54.782;32.024;2022-10-16T07:31:17;9.07;58.24
43772;HTU21D;59066;54.782;32.024;2022-10-16T07:33:45;9.23;58.41
43772;HTU21D;59066;54.782;32.024;2022-10-16T07:36:16;9.36;58.06
43772;HTU21D;59066;54.782;32.024;2022-10-16T07:38:45;9.41;57.28
43772;HTU21D;59066;54.782;32.024;2022-10-16T07:41:15;9.47;57.31
43772;HTU21D;59066;54.782;32.024;2022-10-16T07:43:50;9.52;56.42
43772;HTU21D;59066;54.782;32.024;2022-10-16T07:46:20;9.57;56.28
43772;HTU21D;59066;54.782;32.024;2022-10-16T07:48:48;9.63;55.90
43772;HTU21D;59066;54.782;32.024;2022-10-16T07:51:19;9.72;55.93
43772;HTU21D;59066;54.782;32.024;2022-10-16T07:53:48;9.79;56.10
43772;HTU21D;59066;54.782;32.024;2022-10-16T07:56:16;9.85;54.85
43772;HTU21D;59066;54.782;32.024;2022-10-16T07:58:44;9.84;54.78
43772;HTU21D;59066;54.782;32.024;2022-10-16T08:01:13;9.93;54.33
43772;HTU21D;59066;54.782;32.024;2022-10-16T08:03:43;9.94;54.50
43772;HTU21D;59066;54.782;32.024;2022-10-16T08:06:11;10.06;54.59
43772;HTU21D;59066;54.782;32.024;2022-10-16T08:08:38;10.21;54.10
43772;HTU21D;59066;54.782;32.024;2022-10-16T08:11:06;10.33;54.32
43772;HTU21D;59066;54.782;32.024;2022-10-16T08:13:33;10.44;53.72
43772;HTU21D;59066;54.782;32.024;2022-10-16T08:16:02;10.55;53.63
43772;HTU21D;59066;54.782;32.024;2022-10-16T08:18:39;10.57;53.07
43772;HTU21D;59066;54.782;32.024;2022-10-16T08:21:13;10.55;52.59
43772;HTU21D;59066;54.782;32.024;2022-10-16T08:23:44;10.62;53.12
43772;HTU21D;59066;54.782;32.024;2022-10-16T08:26:12;10.79;53.33
43772;HTU21D;59066;54.782;32.024;2022-10-16T08:28:39;10.95;52.49
43772;HTU21D;59066;54.782;32.024;2022-10-16T08:31:12;10.93;52.30
43772;HTU21D;59066;54.782;32.024;2022-10-16T08:33:42;10.96;52.36
43772;HTU21D;59066;54.782;32.024;2022-10-16T08:36:11;11.07;52.09
43772;HTU21D;59066;54.782;32.024;2022-10-16T08:38:38;11.10;51.98
43772;HTU21D;59066;54.782;32.024;2022-10-16T08:49:15;11.16;51.28
43772;HTU21D;59066;54.782;32.024;2022-10-16T08:51:43;11.27;50.92
43772;HTU21D;59066;54.782;32.024;2022-10-16T08:54:28;11.18;51.08
43772;HTU21D;59066;54.782;32.024;2022-10-16T08:56:57;11.25;50.71
43772;HTU21D;59066;54.782;32.024;2022-10-16T08:59:27;11.31;51.13
43772;HTU21D;59066;54.782;32.024;2022-10-16T09:01:55;11.40;50.72
43772;HTU21D;59066;54.782;32.024;2022-10-16T09:05:00;11.55;50.10
43772;HTU21D;59066;54.782;32.024;2022-10-16T09:15:44;11.69;48.96
43772;HTU21D;59066;54.782;32.024;2022-10-16T09:20:49;11.81;48.83
43772;HTU21D;59066;54.782;32.024;2022-10-16T09:23:28;11.88;48.65
43772;HTU21D;59066;54.782;32.024;2022-10-16T09:25:58;11.94;48.72
43772;HTU21D;59066;54.782;32.024;2022-10-16T09:28:26;12.03;48.55
43772;HTU21D;59066;54.782;32.024;2022-10-16T09:30:53;12.07;48.53
43772;HTU21D;59066;54.782;32.024;2022-10-16T09:33:28;12.01;48.21
43772;HTU21D;59066;54.782;32.024;2022-10-16T09:35:57;11.98;48.12
43772;HTU21D;59066;54.782;32.024;2022-10-16T09:38:29;12.00;48.15
43772;HTU21D;59066;54.782;32.024;2022-10-16T09:41:00;12.11;47.87
43772;HTU21D;59066;54.782;32.024;2022-10-16T09:48:50;12.38;47.06
43772;HTU21D;59066;54.782;32.024;2022-10-16T09:53:59;12.47;46.97
43772;HTU21D;59066;54.782;32.024;2022-10-16T09:56:32;12.56;46.48
43772;HTU21D;59066;54.782;32.024;2022-10-16T09:59:08;12.72;46.40
43772;HTU21D;59066;54.782;32.024;2022-10-16T10:01:38;12.96;46.44
43772;HTU21D;59066;54.782;32.024;2022-10-16T10:04:07;13.12;45.81
43772;HTU21D;59066;54.782;32.024;2022-10-16T10:06:36;13.15;45.46
43772;HTU21D;59066;54.782;32.024;2022-10-16T10:11:55;13.26;45.28
43772;HTU21D;59066;54.782;32.024;2022-10-16T10:14:34;13.40;44.91
43772;HTU21D;59066;54.782;32.024;2022-10-16T10:19:57;13.37;44.45
43772;HTU21D;59066;54.782;32.024;2022-10-16T10:28:04;13.20;44.31
43772;HTU21D;59066;54.782;32.024;2022-10-16T10:30:54;13.29;44.33
43772;HTU21D;59066;54.782;32.024;2022-10-16T10:33:48;13.48;43.90
43772;HTU21D;59066;54.782;32.024;2022-10-16T10:36:36;13.71;43.80
43772;HTU21D;59066;54.782;32.024;2022-10-16T10:50:33;15.62;39.66
43772;HTU21D;59066;54.782;32.024;2022-10-16T11:01:55;16.92;37.17
43772;HTU21D;59066;54.782;32.024;2022-10-16T11:07:30;16.28;36.83
43772;HTU21D;59066;54.782;32.024;2022-10-16T11:10:04;16.15;37.04
43772;HTU21D;59066;54.782;32.024;2022-10-16T11:12:42;15.65;37.75
43772;HTU21D;59066;54.782;32.024;2022-10-16T11:15:18;15.53;38.61
43772;HTU21D;59066;54.782;32.024;2022-10-16T11:18:00;15.42;38.35
43772;HTU21D;59066;54.782;32.024;2022-10-16T11:20:34;15.13;39.17
43772;HTU21D;59066;54.782;32.024;2022-10-16T11:25:43;14.80;39.87
43772;HTU21D;59066;54.782;32.024;2022-10-16T11:28:24;14.73;40.28
43772;HTU21D;59066;54.782;32.024;2022-10-16T11:31:02;14.66;40.08
43772;HTU21D;59066;54.782;32.024;2022-10-16T11:33:45;14.63;40.51
43772;HTU21D;59066;54.782;32.024;2022-10-16T11:36:25;14.58;39.85
43772;HTU21D;59066;54.782;32.024;2022-10-16T11:39:21;14.50;40.17
43772;HTU21D;59066;54.782;32.024;2022-10-16T11:45:23;14.57;40.07
43772;HTU21D;59066;54.782;32.024;2022-10-16T11:50:52;14.74;40.02
43772;HTU21D;59066;54.782;32.024;2022-10-16T11:56:13;14.68;39.55
43772;HTU21D;59066;54.782;32.024;2022-10-16T12:01:54;14.72;39.41
43772;HTU21D;59066;54.782;32.024;2022-10-16T12:04:39;14.65;39.39
43772;HTU21D;59066;54.782;32.024;2022-10-16T12:07:19;14.55;39.75
43772;HTU21D;59066;54.782;32.024;2022-10-16T12:09:47;14.56;39.68
43772;HTU21D;59066;54.782;32.024;2022-10-16T12:12:37;14.52;39.79
43772;HTU21D;59066;54.782;32.024;2022-10-16T12:17:53;14.36;39.65
43772;HTU21D;59066;54.782;32.024;2022-10-16T12:20:30;14.29;39.77
43772;HTU21D;59066;54.782;32.024;2022-10-16T12:23:01;14.29;39.79
43772;HTU21D;59066;54.782;32.024;2022-10-16T12:25:34;14.23;39.81
43772;HTU21D;59066;54.782;32.024;2022-10-16T12:28:17;14.32;39.94
43772;HTU21D;59066;54.782;32.024;2022-10-16T12:35:51;14.30;39.70
43772;HTU21D;59066;54.782;32.024;2022-10-16T12:38:25;14.22;39.81
43772;HTU21D;59066;54.782;32.024;2022-10-16T12:41:00;14.24;39.97
43772;HTU21D;59066;54.782;32.024;2022-10-16T12:43:42;14.40;39.75
43772;HTU21D;59066;54.782;32.024;2022-10-16T12:48:40;14.48;39.21
43772;HTU21D;59066;54.782;32.024;2022-10-16T12:54:01;14.36;39.45
43772;HTU21D;59066;54.782;32.024;2022-10-16T12:59:51;14.11;40.01
43772;HTU21D;59066;54.782;32.024;2022-10-16T13:16:26;13.75;40.88
43772;HTU21D;59066;54.782;32.024;2022-10-16T13:30:18;13.95;40.95
43772;HTU21D;59066;54.782;32.024;2022-10-16T13:32:55;14.00;41.00
43772;HTU21D;59066;54.782;32.024;2022-10-16T13:35:28;14.21;40.76
43772;HTU21D;59066;54.782;32.024;2022-10-16T13:38:13;14.52;40.25
43772;HTU21D;59066;54.782;32.024;2022-10-16T13:40:52;14.66;40.01
43772;HTU21D;59066;54.782;32.024;2022-10-16T13:43:51;14.77;39.81
43772;HTU21D;59066;54.782;32.024;2022-10-16T13:46:24;14.85;39.92
43772;HTU21D;59066;54.782;32.024;2022-10-16T13:49:03;14.80;39.48
43772;HTU21D;59066;54.782;32.024;2022-10-16T13:51:57;14.69;39.72
43772;HTU21D;59066;54.782;32.024;2022-10-16T13:54:26;14.50;40.29
43772;HTU21D;59066;54.782;32.024;2022-10-16T13:56:55;14.35;40.47
43772;HTU21D;59066;54.782;32.024;2022-10-16T13:59:48;14.09;41.01
43772;HTU21D;59066;54.782;32.024;2022-10-16T14:02:26;13.97;41.47
43772;HTU21D;59066;54.782;32.024;2022-10-16T14:04:55;13.84;41.69
43772;HTU21D;59066;54.782;32.024;2022-10-16T14:07:26;13.70;41.91
43772;HTU21D;59066;54.782;32.024;2022-10-16T14:09:55;13.61;42.29
43772;HTU21D;59066;54.782;32.024;2022-10-16T14:12:23;13.49;42.38
43772;HTU21D;59066;54.782;32.024;2022-10-16T14:14:54;13.45;42.81
43772;HTU21D;59066;54.782;32.024;2022-10-16T14:17:30;13.30;43.14
43772;HTU21D;59066;54.782;32.024;2022-10-16T14:20:00;13.16;43.45
43772;HTU21D;59066;54.782;32.024;2022-10-16T14:22:40;13.08;43.73
43772;HTU21D;59066;54.782;32.024;2022-10-16T14:31:02;12.89;44.27
43772;HTU21D;59066;54.782;32.024;2022-10-16T14:33:35;12.78;44.39
43772;HTU21D;59066;54.782;32.024;2022-10-16T14:38:38;12.59;44.80
43772;HTU21D;59066;54.782;32.024;2022-10-16T14:41:06;12.56;44.79
43772;HTU21D;59066;54.782;32.024;2022-10-16T14:43:36;12.52;44.74
43772;HTU21D;59066;54.782;32.024;2022-10-16T14:46:14;12.45;44.83
43772;HTU21D;59066;54.782;32.024;2022-10-16T14:48:43;12.42;44.76
43772;HTU21D;59066;54.782;32.024;2022-10-16T14:51:15;12.32;44.93
43772;HTU21D;59066;54.782;32.024;2022-10-16T14:53:49;12.26;45.03
43772;HTU21D;59066;54.782;32.024;2022-10-16T14:56:23;12.21;45.15
43772;HTU21D;59066;54.782;32.024;2022-10-16T14:58:52;12.16;45.20
43772;HTU21D;59066;54.782;32.024;2022-10-16T15:01:20;12.14;45.21
43772;HTU21D;59066;54.782;32.024;2022-10-16T15:03:53;12.06;45.37
43772;HTU21D;59066;54.782;32.024;2022-10-16T15:06:22;12.02;45.59
43772;HTU21D;59066;54.782;32.024;2022-10-16T15:08:49;11.94;45.73
43772;HTU21D;59066;54.782;32.024;2022-10-16T15:11:18;11.90;45.85
43772;HTU21D;59066;54.782;32.024;2022-10-16T15:13:46;11.87;45.91
43772;HTU21D;59066;54.782;32.024;2022-10-16T15:16:15;11.82;46.28
43772;HTU21D;59066;54.782;32.024;2022-10-16T15:18:44;11.76;46.36
43772;HTU21D;59066;54.782;32.024;2022-10-16T15:21:25;11.75;46.54
43772;HTU21D;59066;54.782;32.024;2022-10-16T15:23:53;11.69;46.67
43772;HTU21D;59066;54.782;32.024;2022-10-16T15:26:21;11.64;46.75
43772;HTU21D;59066;54.782;32.024;2022-10-16T15:28:53;11.61;46.89
43772;HTU21D;59066;54.782;32.024;2022-10-16T15:31:21;11.57;46.99
43772;HTU21D;59066;54.782;32.024;2022-10-16T15:33:50;11.57;47.08
43772;HTU21D;59066;54.782;32.024;2022-10-16T15:36:30;11.57;47.35
43772;HTU21D;59066;54.782;32.024;2022-10-16T15:39:06;11.52;47.40
43772;HTU21D;59066;54.782;32.024;2022-10-16T15:41:37;11.49;47.62
43772;HTU21D;59066;54.782;32.024;2022-10-16T15:44:05;11.45;48.15
43772;HTU21D;59066;54.782;32.024;2022-10-16T15:46:38;11.39;48.09
43772;HTU21D;59066;54.782;32.024;2022-10-16T15:49:06;11.33;48.44
43772;HTU21D;59066;54.782;32.024;2022-10-16T15:51:37;11.30;48.56
43772;HTU21D;59066;54.782;32.024;2022-10-16T15:54:05;11.25;48.89
43772;HTU21D;59066;54.782;32.024;2022-10-16T15:56:32;11.24;48.89
43772;HTU21D;59066;54.782;32.024;2022-10-16T15:59:00;11.19;48.98
43772;HTU21D;59066;54.782;32.024;2022-10-16T16:01:32;11.14;49.18
43772;HTU21D;59066;54.782;32.024;2022-10-16T16:04:00;11.15;49.35
43772;HTU21D;59066;54.782;32.024;2022-10-16T16:06:33;11.09;49.45
43772;HTU21D;59066;54.782;32.024;2022-10-16T16:09:01;11.08;49.58
43772;HTU21D;59066;54.782;32.024;2022-10-16T16:11:28;11.08;49.34
43772;HTU21D;59066;54.782;32.024;2022-10-16T16:13:58;11.07;49.31
43772;HTU21D;59066;54.782;32.024;2022-10-16T16:16:32;11.01;49.68
43772;HTU21D;59066;54.782;32.024;2022-10-16T16:19:05;10.97;49.69
43772;HTU21D;59066;54.782;32.024;2022-10-16T16:21:35;10.95;49.85
43772;HTU21D;59066;54.782;32.024;2022-10-16T16:24:02;10.93;49.76
43772;HTU21D;59066;54.782;32.024;2022-10-16T16:26:36;10.95;49.53
43772;HTU21D;59066;54.782;32.024;2022-10-16T16:29:12;10.92;49.63
43772;HTU21D;59066;54.782;32.024;2022-10-16T16:31:41;10.94;49.56
43772;HTU21D;59066;54.782;32.024;2022-10-16T16:34:09;10.92;49.66
43772;HTU21D;59066;54.782;32.024;2022-10-16T16:36:37;10.92;49.61
43772;HTU21D;59066;54.782;32.024;2022-10-16T16:39:13;10.89;49.66
43772;HTU21D;59066;54.782;32.024;2022-10-16T16:41:41;10.90;49.64
43772;HTU21D;59066;54.782;32.024;2022-10-16T16:44:10;10.86;49.62
43772;HTU21D;59066;54.782;32.024;2022-10-16T16:46:38;10.84;49.59
43772;HTU21D;59066;54.782;32.024;2022-10-16T16:49:06;10.85;49.60
43772;HTU21D;59066;54.782;32.024;2022-10-16T16:51:34;10.83;49.55
43772;HTU21D;59066;54.782;32.024;2022-10-16T16:54:03;10.82;49.66
43772;HTU21D;59066;54.782;32.024;2022-10-16T16:56:30;10.83;49.56
43772;HTU21D;59066;54.782;32.024;2022-10-16T16:58:58;10.77;49.76
43772;HTU21D;59066;54.782;32.024;2022-10-16T17:01:26;10.71;49.90
43772;HTU21D;59066;54.782;32.024;2022-10-16T17:03:55;10.66;50.08
43772;HTU21D;59066;54.782;32.024;2022-10-16T17:06:26;10.65;50.14
43772;HTU21D;59066;54.782;32.024;2022-10-16T17:08:54;10.62;50.24
43772;HTU21D;59066;54.782;32.024;2022-10-16T17:11:26;10.58;50.44
43772;HTU21D;59066;54.782;32.024;2022-10-16T17:13:55;10.56;50.42
43772;HTU21D;59066;54.782;32.024;2022-10-16T17:16:25;10.55;50.48
43772;HTU21D;59066;54.782;32.024;2022-10-16T17:18:53;10.52;50.58
43772;HTU21D;59066;54.782;32.024;2022-10-16T17:21:21;10.48;50.78
43772;HTU21D;59066;54.782;32.024;2022-10-16T17:23:51;10.43;50.95
43772;HTU21D;59066;54.782;32.024;2022-10-16T17:26:19;10.40;51.17
43772;HTU21D;59066;54.782;32.024;2022-10-16T17:28:51;10.35;51.22
43772;HTU21D;59066;54.782;32.024;2022-10-16T17:31:31;10.29;51.34
43772;HTU21D;59066;54.782;32.024;2022-10-16T17:34:00;10.27;51.46
43772;HTU21D;59066;54.782;32.024;2022-10-16T17:36:30;10.25;51.61
43772;HTU21D;59066;54.782;32.024;2022-10-16T17:39:00;10.21;51.88
43772;HTU21D;59066;54.782;32.024;2022-10-16T17:41:37;10.18;51.83
43772;HTU21D;59066;54.782;32.024;2022-10-16T17:44:05;10.15;52.02
43772;HTU21D;59066;54.782;32.024;2022-10-16T17:46:33;10.15;51.99
43772;HTU21D;59066;54.782;32.024;2022-10-16T17:49:03;10.12;52.07
43772;HTU21D;59066;54.782;32.024;2022-10-16T17:51:31;10.08;52.20
43772;HTU21D;59066;54.782;32.024;2022-10-16T17:54:00;10.05;52.40
43772;HTU21D;59066;54.782;32.024;2022-10-16T17:56:28;10.01;52.47
43772;HTU21D;59066;54.782;32.024;2022-10-16T17:58:58;9.97;52.75
43772;HTU21D;59066;54.782;32.024;2022-10-16T18:01:35;9.94;52.80